Time;durP1;ratioP1;P1;durP2;ratioP2;P2;SDS_P1;SDS_P2;PMS_P1;PMS_P2;Temp;Humidity;BMP_temperature;BMP_pressure;BME280_temperature;BME280_humidity;BME280_pressure;Samples;Min_cycle;Max_cycle;Signal;HPM_P1;HPM_P2
2023/04/16 00:01:30;;;;;;;4.97;2.20;;;;;;;10.03;46.88;94270.69;5065592;28;20032;-71
2023/04/16 00:03:56;;;;;;;5.07;2.40;;;;;;;10.07;46.97;94272.84;5087918;28;20642;-71
2023/04/16 00:06:21;;;;;;;5.10;2.55;;;;;;;10.01;47.25;94281.19;5110460;28;20027;-71
2023/04/16 00:08:47;;;;;;;6.78;2.67;;;;;;;9.81;47.47;94282.94;5110015;28;20035;-71
2023/04/16 00:11:12;;;;;;;5.03;2.50;;;;;;;9.73;48.07;94282.81;5093385;28;20032;-71
2023/04/16 00:13:38;;;;;;;4.70;2.75;;;;;;;9.84;47.64;94274.09;5090715;28;20027;-71
2023/04/16 00:16:04;;;;;;;7.75;2.83;;;;;;;9.75;47.86;94254.97;5075792;28;20047;-71
2023/04/16 00:18:29;;;;;;;5.78;2.78;;;;;;;9.80;48.44;94270.91;5105215;28;20108;-71
2023/04/16 00:20:55;;;;;;;6.43;2.85;;;;;;;9.72;48.47;94278.56;5110358;28;20032;-71
2023/04/16 00:23:20;;;;;;;4.82;2.90;;;;;;;9.80;48.18;94272.69;5082531;28;20077;-71
2023/04/16 00:25:46;;;;;;;7.60;3.45;;;;;;;9.78;48.11;94275.44;5090471;28;20028;-71
2023/04/16 00:28:11;;;;;;;9.25;4.18;;;;;;;9.66;48.44;94267.91;5095733;28;20119;-71
2023/04/16 00:30:37;;;;;;;6.57;3.15;;;;;;;9.54;48.76;94255.06;5078176;28;20040;-71
2023/04/16 00:33:03;;;;;;;4.93;3.05;;;;;;;9.60;48.65;94277.03;5099074;28;20030;-71
2023/04/16 00:35:29;;;;;;;5.30;3.03;;;;;;;9.66;48.74;94271.31;5099602;28;20031;-71
2023/04/16 00:37:54;;;;;;;4.57;2.65;;;;;;;9.56;48.75;94270.50;5086570;28;20091;-72
2023/04/16 00:40:20;;;;;;;4.55;2.50;;;;;;;9.53;48.67;94270.78;5097679;28;20039;-71
2023/04/16 00:42:45;;;;;;;4.13;2.83;;;;;;;9.50;49.24;94265.81;5085584;28;20028;-71
2023/04/16 00:45:11;;;;;;;4.57;2.78;;;;;;;9.40;49.23;94252.84;5096656;28;20497;-72
2023/04/16 00:47:37;;;;;;;5.38;2.50;;;;;;;9.39;49.22;94259.00;5095697;28;20032;-71
2023/04/16 00:50:03;;;;;;;8.30;2.83;;;;;;;9.27;49.38;94250.50;5090152;28;20032;-71
2023/04/16 00:52:29;;;;;;;4.97;2.47;;;;;;;9.37;49.27;94274.69;5097661;28;20024;-72
2023/04/16 00:54:55;;;;;;;5.40;2.75;;;;;;;9.31;49.52;94261.44;5089340;28;20024;-71
2023/04/16 00:57:22;;;;;;;5.80;2.50;;;;;;;9.21;49.41;94269.19;5073096;28;20032;-71
2023/04/16 00:59:48;;;;;;;4.32;2.50;;;;;;;9.25;49.57;94255.00;5089895;28;20024;-71
2023/04/16 01:02:13;;;;;;;4.45;2.72;;;;;;;9.05;49.74;94241.16;5073100;28;20039;-71
2023/04/16 01:04:39;;;;;;;4.13;2.60;;;;;;;9.18;49.31;94256.47;5076123;28;20035;-72
2023/04/16 01:07:04;;;;;;;5.63;3.10;;;;;;;8.93;49.73;94250.81;5074246;28;20036;-72
2023/04/16 01:09:30;;;;;;;6.97;3.10;;;;;;;9.07;49.55;94260.00;5105134;28;20047;-71
2023/04/16 01:11:55;;;;;;;7.57;3.03;;;;;;;9.12;49.51;94259.59;5094651;28;20024;-71
2023/04/16 01:14:21;;;;;;;4.53;2.65;;;;;;;9.04;49.60;94265.44;5097129;28;20044;-72
2023/04/16 01:16:46;;;;;;;5.30;2.50;;;;;;;8.99;49.95;94264.19;5091133;28;20504;-71
2023/04/16 01:19:11;;;;;;;5.88;2.50;;;;;;;9.02;49.98;94263.94;5105629;28;20027;-71
2023/04/16 01:21:37;;;;;;;5.03;2.42;;;;;;;8.95;49.92;94266.22;5100858;28;20036;-71
2023/04/16 01:24:03;;;;;;;5.25;2.80;;;;;;;8.86;50.22;94247.13;5106526;28;20402;-71
2023/04/16 01:26:29;;;;;;;8.27;4.10;;;;;;;9.02;50.22;94261.34;5079362;28;20028;-71
2023/04/16 01:28:55;;;;;;;8.30;3.88;;;;;;;9.00;49.75;94265.81;5095482;28;20024;-71
2023/04/16 01:31:20;;;;;;;6.25;3.05;;;;;;;8.84;50.08;94259.38;5065696;28;20036;-71
2023/04/16 01:33:46;;;;;;;4.65;2.30;;;;;;;8.84;50.15;94246.41;5089516;28;20086;-71
2023/04/16 01:36:11;;;;;;;4.30;2.38;;;;;;;8.88;50.09;94252.97;5072018;28;20024;-71
2023/04/16 01:38:37;;;;;;;4.78;2.40;;;;;;;8.86;50.07;94254.03;5077218;28;20409;-71
2023/04/16 01:41:02;;;;;;;4.90;2.75;;;;;;;8.81;50.27;94238.91;5102946;28;20204;-71
2023/04/16 01:43:28;;;;;;;6.43;2.67;;;;;;;8.87;49.94;94251.34;5099207;28;20024;-72
2023/04/16 01:46:09;;;;;;;4.78;2.95;;;;;;;8.82;50.09;94245.72;5100458;28;20043;-72
2023/04/16 01:48:35;;;;;;;6.88;2.70;;;;;;;8.77;50.29;94247.88;5092966;28;20116;-71
2023/04/16 01:51:00;;;;;;;7.38;2.55;;;;;;;8.78;50.68;94246.94;5079183;28;20031;-72
2023/04/16 01:53:26;;;;;;;7.88;2.80;;;;;;;8.77;50.71;94250.47;5092754;28;20040;-72
2023/04/16 01:55:51;;;;;;;6.93;2.55;;;;;;;8.42;51.23;94228.38;5105263;28;20036;-72
2023/04/16 01:58:16;;;;;;;6.72;3.00;;;;;;;8.41;51.61;94262.97;5099842;28;20024;-72
2023/04/16 02:00:42;;;;;;;4.25;2.90;;;;;;;8.49;51.80;94251.97;5068485;28;20031;-72
2023/04/16 02:03:08;;;;;;;5.80;2.55;;;;;;;8.60;51.28;94259.66;5106952;28;20024;-72
2023/04/16 02:05:33;;;;;;;4.22;2.63;;;;;;;8.70;51.31;94257.13;5090688;28;20043;-72
2023/04/16 02:07:59;;;;;;;4.78;2.80;;;;;;;8.59;51.84;94246.84;5095489;28;20023;-72
2023/04/16 02:10:25;;;;;;;7.18;2.90;;;;;;;8.68;51.57;94254.66;5092166;28;20035;-72
2023/04/16 02:12:50;;;;;;;6.28;2.65;;;;;;;8.69;51.30;94247.69;5094325;28;20043;-72
2023/04/16 02:15:16;;;;;;;4.53;2.95;;;;;;;8.70;51.20;94251.94;5094734;28;20470;-72
2023/04/16 02:17:41;;;;;;;5.05;2.65;;;;;;;8.75;51.28;94249.78;5097519;28;20059;-72
2023/04/16 02:20:09;;;;;;;5.60;2.90;;;;;;;8.71;51.33;94238.03;5090361;28;20527;-72
2023/04/16 02:22:34;;;;;;;5.88;2.80;;;;;;;8.64;51.42;94242.13;5090270;28;20024;-72
2023/04/16 02:24:59;;;;;;;4.85;2.97;;;;;;;8.59;51.66;94246.84;5092120;28;20081;-72
2023/04/16 02:27:25;;;;;;;5.18;2.90;;;;;;;8.60;51.99;94243.31;5093287;28;20059;-72
2023/04/16 02:29:50;;;;;;;5.10;2.95;;;;;;;8.57;51.46;94233.22;5097520;27;20027;-72
2023/04/16 02:32:16;;;;;;;5.47;3.00;;;;;;;8.58;51.17;94232.25;5102284;28;20039;-71
2023/04/16 02:34:42;;;;;;;5.30;2.85;;;;;;;8.57;51.41;94249.56;5107896;28;20028;-71
2023/04/16 02:37:07;;;;;;;4.72;2.83;;;;;;;8.59;51.51;94241.66;5080800;28;20033;-71
2023/04/16 02:39:33;;;;;;;6.10;2.90;;;;;;;8.57;51.65;94246.97;5076693;28;20031;-71
2023/04/16 02:41:59;;;;;;;5.43;2.53;;;;;;;8.61;51.47;94237.16;5103147;28;20410;-71
2023/04/16 02:44:25;;;;;;;4.85;2.65;;;;;;;8.57;51.66;94238.38;5098232;28;20090;-71
2023/04/16 02:46:50;;;;;;;3.95;2.53;;;;;;;8.65;51.27;94233.38;5100869;28;20035;-71
2023/04/16 02:49:15;;;;;;;5.07;2.75;;;;;;;8.47;51.60;94223.63;5111542;28;20467;-71
2023/04/16 02:51:41;;;;;;;4.95;3.00;;;;;;;8.52;51.53;94235.34;5094494;28;20028;-71
2023/04/16 02:54:06;;;;;;;4.93;2.78;;;;;;;8.61;51.36;94234.56;5091301;28;20097;-71
2023/04/16 02:56:32;;;;;;;5.40;2.80;;;;;;;8.45;52.13;94233.28;5102447;28;20110;-71
2023/04/16 02:58:57;;;;;;;6.05;2.97;;;;;;;8.35;51.97;94239.31;5081998;28;20498;-71
2023/04/16 03:01:23;;;;;;;7.00;2.83;;;;;;;8.24;52.25;94220.31;5103198;28;20051;-71
2023/04/16 03:03:48;;;;;;;8.40;2.90;;;;;;;8.38;52.39;94237.28;5081399;28;20035;-71
2023/04/16 03:06:13;;;;;;;5.90;3.10;;;;;;;8.33;52.62;94231.69;5093212;28;20074;-71
2023/04/16 03:08:39;;;;;;;4.47;2.47;;;;;;;8.38;52.25;94231.31;5096696;28;20115;-71
2023/04/16 03:11:05;;;;;;;6.63;2.80;;;;;;;8.29;52.54;94217.34;5093112;28;20024;-71
2023/04/16 03:13:30;;;;;;;4.20;2.40;;;;;;;8.33;52.61;94234.28;5101225;28;20444;-71
2023/04/16 03:15:56;;;;;;;6.75;2.88;;;;;;;8.45;52.19;94228.09;5111680;28;20482;-71
2023/04/16 03:18:21;;;;;;;3.92;2.63;;;;;;;8.26;52.68;94230.56;5100307;28;20028;-71
2023/04/16 03:20:51;;;;;;;5.35;2.53;;;;;;;8.19;53.68;94234.59;5103354;28;20024;-71
2023/04/16 03:23:16;;;;;;;6.25;3.17;;;;;;;8.19;53.20;94238.00;5109483;28;20035;-71
2023/04/16 03:25:45;;;;;;;5.05;2.60;;;;;;;7.99;52.88;94206.00;5112492;28;20032;-71
2023/04/16 03:28:10;;;;;;;4.43;2.45;;;;;;;8.26;53.08;94233.97;5111189;28;20024;-71
2023/04/16 03:30:36;;;;;;;5.82;2.72;;;;;;;8.19;53.27;94237.16;5109233;28;20035;-71
2023/04/16 03:33:02;;;;;;;5.38;2.70;;;;;;;8.10;52.94;94219.81;5099584;28;20016;-71
2023/04/16 03:35:27;;;;;;;5.55;2.65;;;;;;;8.30;52.96;94229.34;5108611;28;20081;-71
2023/04/16 03:37:53;;;;;;;4.18;2.90;;;;;;;8.30;52.56;94231.94;5102321;28;20028;-71
2023/04/16 03:40:18;;;;;;;3.90;2.55;;;;;;;8.26;52.86;94231.38;5104160;28;20039;-71
2023/04/16 03:42:44;;;;;;;5.40;2.78;;;;;;;8.19;52.98;94230.25;5102968;28;20504;-71
2023/04/16 03:45:10;;;;;;;5.28;2.50;;;;;;;8.11;53.36;94229.22;5094709;28;20436;-71
2023/04/16 03:47:35;;;;;;;5.63;2.80;;;;;;;7.90;53.34;94196.41;5110573;28;20028;-71
2023/04/16 03:50:00;;;;;;;4.82;2.88;;;;;;;8.12;53.22;94236.06;5108925;28;20458;-71
2023/04/16 03:52:27;;;;;;;5.25;2.67;;;;;;;8.12;53.52;94239.47;5084398;28;20039;-71
2023/04/16 03:54:52;;;;;;;5.68;2.55;;;;;;;8.09;53.26;94236.31;5110867;28;20023;-71
2023/04/16 03:57:18;;;;;;;5.82;2.42;;;;;;;7.87;53.64;94212.19;5099494;28;20471;-72
2023/04/16 03:59:43;;;;;;;4.50;2.40;;;;;;;7.86;53.85;94220.91;5110807;28;20027;-71
2023/04/16 04:02:09;;;;;;;4.57;2.83;;;;;;;8.05;53.90;94244.31;5109022;28;20040;-71
2023/04/16 04:04:34;;;;;;;7.22;2.70;;;;;;;8.12;53.56;94246.41;5090960;28;20031;-71
2023/04/16 04:07:00;;;;;;;5.20;2.63;;;;;;;8.27;53.61;94245.97;5058461;28;20036;-71
2023/04/16 04:09:25;;;;;;;4.60;2.60;;;;;;;8.23;53.21;94241.16;5101029;28;20028;-71
2023/04/16 04:11:50;;;;;;;5.30;2.40;;;;;;;8.28;53.63;94252.78;5100761;28;20538;-71
2023/04/16 04:14:16;;;;;;;4.55;2.55;;;;;;;8.24;54.25;94246.19;5109070;28;20487;-71
2023/04/16 04:16:41;;;;;;;5.57;2.53;;;;;;;8.23;53.71;94223.06;5082205;28;20447;-71
2023/04/16 04:19:07;;;;;;;5.30;2.65;;;;;;;8.48;53.77;94264.09;5107691;28;20062;-71
2023/04/16 04:21:32;;;;;;;5.70;2.58;;;;;;;8.46;53.86;94255.63;5107567;28;20032;-71
2023/04/16 04:23:58;;;;;;;4.30;2.35;;;;;;;8.50;53.75;94251.84;5074007;28;20085;-71
2023/04/16 04:26:23;;;;;;;4.38;2.47;;;;;;;8.50;53.90;94267.38;5100604;28;20524;-71
2023/04/16 04:28:49;;;;;;;5.82;2.42;;;;;;;8.32;54.91;94263.69;5098131;28;20521;-71
2023/04/16 04:31:14;;;;;;;6.20;2.60;;;;;;;8.26;55.14;94274.53;5090359;28;20054;-71
2023/04/16 04:33:40;;;;;;;4.63;2.50;;;;;;;8.40;54.44;94276.03;5096408;28;20019;-71
2023/04/16 04:36:06;;;;;;;5.25;2.53;;;;;;;8.35;54.81;94283.31;5066132;28;20101;-71
2023/04/16 04:38:31;;;;;;;4.00;2.30;;;;;;;8.43;54.72;94270.59;5101185;28;20081;-71
2023/04/16 04:40:57;;;;;;;3.78;2.58;;;;;;;8.34;54.61;94259.22;5100438;28;20031;-71
2023/04/16 04:43:23;;;;;;;4.43;2.45;;;;;;;8.60;54.08;94279.53;5081545;28;20699;-71
2023/04/16 04:45:48;;;;;;;5.63;2.50;;;;;;;8.61;54.34;94284.63;5104128;28;20027;-71
2023/04/16 04:48:14;;;;;;;5.05;2.67;;;;;;;8.61;54.45;94281.19;5094878;28;20036;-71
2023/04/16 04:50:40;;;;;;;5.35;2.60;;;;;;;8.59;54.41;94270.97;5075821;28;20085;-71
2023/04/16 04:53:08;;;;;;;4.15;2.50;;;;;;;8.80;53.82;94283.06;5062162;28;20494;-71
2023/04/16 04:55:37;;;;;;;5.07;2.40;;;;;;;8.80;53.81;94283.88;5089992;28;20515;-71
2023/04/16 04:58:04;;;;;;;6.78;2.53;;;;;;;8.82;53.73;94281.97;5098941;28;20068;-71
2023/04/16 05:00:30;;;;;;;6.53;2.72;;;;;;;8.83;55.43;94275.03;5068227;28;20039;-72
2023/04/16 05:02:55;;;;;;;8.00;3.40;;;;;;;8.83;56.18;94282.78;5088486;28;20118;-72
2023/04/16 05:05:21;;;;;;;9.73;4.68;;;;;;;8.73;56.16;94287.94;5080759;28;20806;-71
2023/04/16 05:07:46;;;;;;;6.43;2.72;;;;;;;8.77;55.32;94278.94;5093431;28;20115;-72
2023/04/16 05:10:12;;;;;;;3.67;2.30;;;;;;;8.77;54.98;94273.78;5094812;28;20032;-71
2023/04/16 05:12:38;;;;;;;5.93;2.80;;;;;;;8.85;54.56;94265.34;5103226;28;20061;-70
2023/04/16 05:15:04;;;;;;;4.00;2.38;;;;;;;8.97;54.50;94271.25;5071075;28;20011;-71
2023/04/16 05:17:31;;;;;;;4.82;2.50;;;;;;;9.17;53.85;94281.59;5087116;28;20436;-70
2023/04/16 05:19:57;;;;;;;5.47;2.60;;;;;;;9.00;53.85;94276.19;5080863;28;20032;-72
2023/04/16 05:22:22;;;;;;;5.03;3.00;;;;;;;9.02;53.94;94274.28;5097082;28;20040;-70
2023/04/16 05:24:47;;;;;;;7.80;3.42;;;;;;;9.04;53.87;94280.16;5101403;28;20028;-70
2023/04/16 05:27:13;;;;;;;6.25;2.75;;;;;;;9.15;53.91;94267.13;5108549;28;20035;-71
2023/04/16 05:29:38;;;;;;;5.65;2.65;;;;;;;9.24;53.79;94275.88;5094884;28;20028;-71
2023/04/16 05:32:04;;;;;;;5.03;2.55;;;;;;;9.34;52.96;94267.16;5100587;28;20028;-71
2023/04/16 05:34:29;;;;;;;4.10;2.47;;;;;;;9.24;52.79;94230.03;5091757;28;20410;-72
2023/04/16 05:36:55;;;;;;;4.75;3.00;;;;;;;9.51;52.76;94270.06;5103184;28;20374;-72
2023/04/16 05:39:20;;;;;;;8.55;5.07;;;;;;;9.49;52.88;94270.19;5068237;28;20418;-71
2023/04/16 05:41:46;;;;;;;4.72;2.85;;;;;;;9.62;52.29;94277.75;5093705;28;21013;-71
2023/04/16 05:44:11;;;;;;;7.50;4.88;;;;;;;9.49;52.47;94256.41;5096293;28;20145;-71
2023/04/16 05:46:37;;;;;;;6.13;4.32;;;;;;;9.68;51.89;94284.16;5091832;28;20044;-71
2023/04/16 05:49:02;;;;;;;4.38;3.13;;;;;;;9.76;51.81;94279.94;5106028;28;20106;-71
2023/04/16 05:51:28;;;;;;;14.10;9.07;;;;;;;9.67;51.87;94275.56;5101691;28;20036;-73
2023/04/16 05:53:54;;;;;;;16.85;9.10;;;;;;;9.82;51.74;94279.38;5090167;28;20575;-73
2023/04/16 05:56:20;;;;;;;13.27;5.93;;;;;;;9.85;52.07;94280.91;5082681;28;20107;-73
2023/04/16 05:58:46;;;;;;;13.27;5.90;;;;;;;9.87;51.80;94258.25;5101324;28;20028;-73
2023/04/16 06:01:11;;;;;;;7.22;3.20;;;;;;;10.05;51.30;94250.56;5105945;28;20088;-72
2023/04/16 06:03:37;;;;;;;7.90;3.28;;;;;;;10.20;51.48;94267.38;5099422;28;20501;-72
2023/04/16 06:06:02;;;;;;;9.63;5.43;;;;;;;10.19;51.08;94242.38;5104998;28;20028;-72
2023/04/16 06:08:28;;;;;;;31.90;15.52;;;;;;;10.44;51.81;94266.97;5100885;28;20032;-71
2023/04/16 06:10:53;;;;;;;13.75;8.63;;;;;;;10.51;54.59;94267.25;5111724;28;20024;-71
2023/04/16 06:13:19;;;;;;;13.35;8.32;;;;;;;10.62;54.98;94264.47;5081118;28;20040;-71
2023/04/16 06:15:44;;;;;;;11.25;7.53;;;;;;;10.76;55.07;94265.00;5103501;28;20410;-71
2023/04/16 06:18:10;;;;;;;9.43;6.10;;;;;;;10.78;55.38;94263.91;5099804;28;20430;-71
2023/04/16 06:20:35;;;;;;;7.80;6.38;;;;;;;10.78;55.86;94261.31;5108490;28;20024;-72
2023/04/16 06:23:01;;;;;;;9.48;5.15;;;;;;;10.70;56.09;94251.59;5087021;28;20043;-72
2023/04/16 06:25:26;;;;;;;8.10;4.93;;;;;;;10.86;55.22;94260.56;5095328;28;20477;-72
2023/04/16 06:27:51;;;;;;;7.85;5.32;;;;;;;10.80;55.63;94250.75;5093909;28;20493;-72
2023/04/16 06:30:18;;;;;;;8.45;5.20;;;;;;;10.72;55.36;94262.66;5109132;28;20144;-72
2023/04/16 06:32:45;;;;;;;8.63;4.65;;;;;;;10.89;54.97;94260.28;5081458;28;20044;-72
2023/04/16 06:35:10;;;;;;;6.88;5.20;;;;;;;11.26;54.27;94268.06;5083339;28;20093;-72
2023/04/16 06:37:36;;;;;;;7.65;4.47;;;;;;;11.44;53.00;94275.91;5084182;28;20032;-72
2023/04/16 06:40:01;;;;;;;6.38;4.07;;;;;;;11.50;52.74;94264.09;5103207;28;20533;-72
2023/04/16 06:42:27;;;;;;;6.53;4.43;;;;;;;11.66;51.91;94261.69;5108517;28;20027;-72
2023/04/16 06:44:52;;;;;;;10.35;4.40;;;;;;;11.87;50.92;94261.44;5097816;28;20471;-72
2023/04/16 06:47:18;;;;;;;8.35;5.25;;;;;;;11.63;50.71;94268.00;5075861;28;20101;-71
2023/04/16 06:49:43;;;;;;;9.27;5.28;;;;;;;11.88;50.80;94263.06;5069193;28;20032;-70
2023/04/16 06:52:09;;;;;;;10.13;5.55;;;;;;;11.97;49.94;94261.34;5082144;28;20043;-74
2023/04/16 06:54:35;;;;;;;14.82;8.68;;;;;;;12.21;49.85;94263.38;5102850;28;20042;-73
2023/04/16 06:57:00;;;;;;;15.65;9.25;;;;;;;12.25;48.96;94262.91;5083992;28;20062;-73
2023/04/16 06:59:25;;;;;;;13.40;6.85;;;;;;;12.31;49.14;94261.47;5105655;28;20023;-72
2023/04/16 07:01:51;;;;;;;10.02;5.60;;;;;;;12.36;49.06;94258.44;5098318;28;20024;-73
2023/04/16 07:04:17;;;;;;;13.85;8.27;;;;;;;12.47;48.99;94266.81;5094048;28;20093;-74
2023/04/16 07:06:42;;;;;;;12.63;5.35;;;;;;;12.42;48.47;94261.25;5104800;28;20043;-71
2023/04/16 07:09:12;;;;;;;6.55;4.38;;;;;;;12.28;48.46;94259.19;5094910;28;20028;-73
2023/04/16 07:11:37;;;;;;;11.93;6.00;;;;;;;11.91;49.80;94264.56;5102412;28;20028;-72
2023/04/16 07:14:03;;;;;;;8.68;5.10;;;;;;;12.26;49.71;94261.94;5094454;28;20035;-72
2023/04/16 07:16:28;;;;;;;9.63;5.10;;;;;;;12.48;48.46;94265.88;5102183;28;20040;-74
2023/04/16 07:18:53;;;;;;;12.38;5.32;;;;;;;12.46;48.42;94257.38;5102529;28;20065;-74
2023/04/16 07:21:19;;;;;;;8.63;5.13;;;;;;;12.56;48.33;94266.88;5094405;27;20031;-74
2023/04/16 07:23:45;;;;;;;8.45;4.60;;;;;;;12.59;48.23;94269.19;5106258;27;20084;-73
2023/04/16 07:26:10;;;;;;;7.45;4.80;;;;;;;12.37;48.23;94253.09;5099367;28;20530;-72
2023/04/16 07:28:36;;;;;;;6.97;4.53;;;;;;;12.52;48.68;94271.59;5098649;28;20026;-72
2023/04/16 07:31:01;;;;;;;9.93;5.32;;;;;;;12.72;47.74;94275.63;5109100;28;20043;-71
2023/04/16 07:33:27;;;;;;;10.10;5.03;;;;;;;12.80;47.83;94269.66;5105278;28;20398;-72
2023/04/16 07:35:52;;;;;;;9.82;5.30;;;;;;;12.95;48.10;94256.84;5105538;28;20052;-73
2023/04/16 07:38:18;;;;;;;12.45;6.03;;;;;;;13.17;47.40;94265.94;5090187;28;20461;-72
2023/04/16 07:40:43;;;;;;;8.98;5.32;;;;;;;13.27;46.55;94261.44;5109129;28;20027;-71
2023/04/16 07:43:12;;;;;;;6.55;4.50;;;;;;;13.25;46.74;94263.34;5083840;28;20031;-72
2023/04/16 07:45:38;;;;;;;9.35;4.97;;;;;;;13.35;47.28;94250.25;5080358;28;20051;-71
2023/04/16 07:48:04;;;;;;;8.95;6.10;;;;;;;13.55;46.17;94258.63;5099596;28;20031;-72
2023/04/16 07:50:29;;;;;;;9.55;5.47;;;;;;;13.76;46.13;94252.94;5099301;28;20032;-72
2023/04/16 07:52:55;;;;;;;8.02;4.70;;;;;;;13.99;45.42;94250.56;5089675;28;20019;-73
2023/04/16 07:55:20;;;;;;;7.95;4.82;;;;;;;14.20;45.99;94258.72;5085769;28;20104;-72
2023/04/16 07:57:46;;;;;;;8.40;4.47;;;;;;;14.43;44.73;94258.06;5099113;28;20417;-72
2023/04/16 08:00:12;;;;;;;7.90;5.40;;;;;;;14.71;43.60;94246.34;5098091;28;20107;-72
2023/04/16 08:02:37;;;;;;;8.13;4.40;;;;;;;14.89;43.22;94253.97;5093059;28;20028;-72
2023/04/16 08:05:03;;;;;;;9.55;4.20;;;;;;;14.89;42.64;94247.94;5104465;28;20036;-73
2023/04/16 08:07:28;;;;;;;8.65;4.15;;;;;;;15.03;42.84;94249.84;5093211;28;20137;-73
2023/04/16 08:09:54;;;;;;;9.98;4.45;;;;;;;15.17;42.67;94243.91;5088886;28;20518;-73
2023/04/16 08:12:19;;;;;;;8.57;4.90;;;;;;;15.44;42.21;94235.81;5091252;28;20028;-72
2023/04/16 08:14:45;;;;;;;8.38;4.63;;;;;;;15.42;41.54;94225.50;5073193;28;20028;-72
2023/04/16 08:17:11;;;;;;;6.25;4.07;;;;;;;15.55;41.69;94241.50;5071884;28;20040;-72
2023/04/16 08:19:37;;;;;;;14.93;6.93;;;;;;;15.59;41.81;94242.75;5089920;28;20024;-72
2023/04/16 08:22:02;;;;;;;9.70;5.07;;;;;;;15.45;41.90;94240.06;5070204;28;20490;-72
2023/04/16 08:24:28;;;;;;;8.23;3.88;;;;;;;15.23;42.71;94233.78;5089402;28;20391;-73
2023/04/16 08:26:53;;;;;;;7.88;3.95;;;;;;;15.54;42.19;94221.50;5089632;28;20012;-72
2023/04/16 08:29:19;;;;;;;6.85;3.70;;;;;;;15.87;41.72;94223.97;5071455;28;20032;-72
2023/04/16 08:31:45;;;;;;;6.75;3.58;;;;;;;16.06;41.64;94231.38;5089817;28;20030;-72
2023/04/16 08:34:11;;;;;;;6.20;3.67;;;;;;;16.22;41.73;94227.84;5071521;28;20039;-71
2023/04/16 08:36:36;;;;;;;6.43;3.60;;;;;;;16.34;41.28;94225.63;5071715;28;20524;-71
2023/04/16 08:39:02;;;;;;;7.82;3.83;;;;;;;16.73;41.44;94224.63;5090311;28;20024;-71
2023/04/16 08:41:31;;;;;;;7.13;3.70;;;;;;;16.87;40.82;94223.84;5091507;28;20036;-71
2023/04/16 08:43:56;;;;;;;5.60;3.97;;;;;;;16.88;40.33;94215.00;5057018;28;20036;-71
2023/04/16 08:46:23;;;;;;;9.93;4.40;;;;;;;16.81;40.63;94218.50;5073391;28;20075;-71
2023/04/16 08:48:48;;;;;;;8.90;3.53;;;;;;;16.87;40.51;94208.09;5073319;28;20031;-71
2023/04/16 08:51:14;;;;;;;8.05;3.42;;;;;;;16.90;40.30;94210.38;5073564;28;20453;-71
2023/04/16 08:53:52;;;;;;;11.05;3.40;;;;;;;16.26;40.99;94205.53;5073021;28;20020;-71
2023/04/16 08:56:22;;;;;;;5.53;3.38;;;;;;;16.53;41.47;94201.53;5073146;28;20126;-71
2023/04/16 08:58:48;;;;;;;7.13;3.15;;;;;;;16.63;41.33;94213.56;5056555;28;20028;-71
2023/04/16 09:01:16;;;;;;;5.43;3.00;;;;;;;16.65;40.57;94209.75;5056632;28;20519;-71
2023/04/16 09:03:41;;;;;;;6.15;3.47;;;;;;;16.85;40.99;94210.09;5056531;28;20031;-71
2023/04/16 09:06:06;;;;;;;5.88;3.25;;;;;;;17.08;40.73;94206.59;5073112;28;20027;-71
2023/04/16 09:08:32;;;;;;;6.93;3.00;;;;;;;17.37;40.49;94197.88;5056366;28;20036;-71
2023/04/16 09:10:57;;;;;;;8.93;3.00;;;;;;;17.18;39.58;94178.25;5072970;28;20035;-71
2023/04/16 09:13:23;;;;;;;6.65;2.85;;;;;;;17.27;39.06;94197.31;5075384;28;20043;-71
2023/04/16 09:15:56;;;;;;;5.22;3.55;;;;;;;17.29;39.45;94198.78;5081344;28;20043;-71
2023/04/16 09:18:21;;;;;;;6.35;3.10;;;;;;;16.96;40.25;94190.47;5084759;28;20063;-71
2023/04/16 09:20:50;;;;;;;5.57;3.10;;;;;;;16.96;39.65;94193.91;5109513;28;20024;-71
2023/04/16 09:23:16;;;;;;;7.72;4.22;;;;;;;17.06;40.21;94192.84;5106002;28;20034;-71
2023/04/16 09:25:42;;;;;;;6.18;2.80;;;;;;;17.22;39.72;94187.41;5086596;28;20028;-71
2023/04/16 09:28:08;;;;;;;5.13;2.78;;;;;;;17.18;39.63;94173.00;5093448;28;20050;-70
2023/04/16 09:30:34;;;;;;;3.88;2.72;;;;;;;17.33;39.94;94183.50;5088173;28;20133;-72
2023/04/16 09:33:21;;;;;;;6.95;2.95;;;;;;;17.55;39.24;94176.44;5093681;28;20024;-71
2023/04/16 09:35:48;;;;;;;7.80;2.97;;;;;;;17.71;38.74;94183.28;5110261;28;20122;-70
2023/04/16 09:38:14;;;;;;;6.93;3.00;;;;;;;17.76;38.65;94187.00;5106998;28;20051;-70
2023/04/16 09:40:39;;;;;;;6.70;3.22;;;;;;;17.75;38.44;94190.63;5088062;28;20039;-71
2023/04/16 09:43:15;;;;;;;5.03;2.67;;;;;;;17.62;38.49;94172.09;5096621;28;20027;-72
2023/04/16 09:45:51;;;;;;;7.18;3.30;;;;;;;17.75;38.81;94180.13;5091308;28;20142;-71
2023/04/16 09:48:29;;;;;;;7.35;3.03;;;;;;;17.82;38.07;94169.72;5076258;28;20032;-72
2023/04/16 09:50:55;;;;;;;5.35;2.60;;;;;;;17.99;37.83;94173.72;5087548;28;20421;-72
2023/04/16 09:53:27;;;;;;;6.97;2.70;;;;;;;18.14;37.94;94165.78;5073093;28;20028;-71
2023/04/16 09:55:57;;;;;;;6.65;3.10;;;;;;;18.06;37.22;94165.91;5102533;28;20039;-71
2023/04/16 09:58:25;;;;;;;5.72;3.00;;;;;;;18.13;37.12;94171.22;5093347;28;20421;-73
2023/04/16 10:00:56;;;;;;;8.18;2.80;;;;;;;18.07;36.83;94167.53;5088127;28;20032;-72
2023/04/16 10:03:34;;;;;;;4.57;2.63;;;;;;;18.10;37.92;94169.75;5082873;28;20186;-72
2023/04/16 10:06:07;;;;;;;4.40;2.53;;;;;;;18.17;36.93;94146.19;5085977;28;20039;-72
2023/04/16 10:08:33;;;;;;;5.22;2.40;;;;;;;18.24;37.51;94168.88;5079833;28;20028;-73
2023/04/16 10:10:58;;;;;;;7.03;2.20;;;;;;;17.97;35.83;94151.25;5099880;28;20036;-73
2023/04/16 10:13:26;;;;;;;6.60;3.03;;;;;;;17.93;36.71;94152.63;5086150;28;20494;-74
2023/04/16 10:15:54;;;;;;;6.40;2.75;;;;;;;17.90;37.19;94151.19;5086064;28;20040;-73
2023/04/16 10:18:20;;;;;;;6.38;2.70;;;;;;;17.95;37.53;94150.63;5099525;28;20105;-73
2023/04/16 10:20:45;;;;;;;5.20;3.25;;;;;;;17.97;38.42;94151.25;5107964;28;20493;-74
2023/04/16 10:23:11;;;;;;;4.57;2.70;;;;;;;18.20;37.83;94140.56;5080240;28;20477;-74
2023/04/16 10:25:37;;;;;;;5.95;2.85;;;;;;;18.36;37.09;94134.19;5108999;27;20027;-75
2023/04/16 10:28:02;;;;;;;5.43;2.67;;;;;;;18.42;37.55;94136.88;5083850;28;20054;-74
2023/04/16 10:30:28;;;;;;;7.05;2.90;;;;;;;18.62;37.22;94126.50;5082203;28;20040;-74
2023/04/16 10:32:53;;;;;;;4.50;2.45;;;;;;;18.66;36.17;94135.59;5109271;28;20024;-73
2023/04/16 10:35:19;;;;;;;4.20;2.40;;;;;;;18.53;36.36;94125.03;5104712;28;20043;-73
2023/04/16 10:37:46;;;;;;;4.78;2.20;;;;;;;18.49;36.36;94134.28;5091763;28;20120;-73
2023/04/16 10:40:25;;;;;;;5.90;2.65;;;;;;;18.51;36.43;94133.09;5105895;28;20031;-73
2023/04/16 10:42:57;;;;;;;6.03;2.72;;;;;;;18.50;35.82;94141.19;5114764;27;20030;-73
2023/04/16 10:45:30;;;;;;;5.88;2.60;;;;;;;18.67;35.74;94128.56;5098342;28;20112;-73
2023/04/16 10:47:57;;;;;;;4.43;2.50;;;;;;;18.54;35.20;94137.16;5107515;28;20023;-74
2023/04/16 10:50:22;;;;;;;5.88;2.80;;;;;;;18.71;35.74;94129.78;5081835;28;20059;-74
2023/04/16 10:52:48;;;;;;;4.55;2.30;;;;;;;18.77;35.80;94125.59;5083089;28;20474;-73
2023/04/16 10:55:16;;;;;;;6.00;2.40;;;;;;;18.95;35.98;94131.16;5105265;27;20038;-74
2023/04/16 10:57:42;;;;;;;5.05;2.40;;;;;;;18.96;35.35;94114.34;5097606;28;20028;-74
2023/04/16 11:00:28;;;;;;;4.63;2.58;;;;;;;19.02;35.31;94124.09;5098930;28;20481;-74
2023/04/16 11:02:53;;;;;;;4.43;2.30;;;;;;;18.99;35.65;94111.34;5103710;28;20042;-74
2023/04/16 11:05:23;;;;;;;8.75;3.40;;;;;;;18.94;35.61;94113.72;5078638;27;20421;-75
2023/04/16 11:07:48;;;;;;;3.50;2.22;;;;;;;18.94;35.47;94108.47;5096691;28;20127;-74
2023/04/16 11:10:14;;;;;;;4.80;2.22;;;;;;;18.63;35.46;94078.13;5084844;28;20485;-74
2023/04/16 11:12:40;;;;;;;4.88;2.00;;;;;;;18.64;35.65;94111.34;5106940;28;20094;-74
2023/04/16 11:15:10;;;;;;;5.25;2.00;;;;;;;18.69;35.39;94119.47;5100856;28;20521;-74
2023/04/16 11:17:43;;;;;;;5.35;2.20;;;;;;;18.23;36.32;94112.06;5098263;28;20028;-73
2023/04/16 11:20:15;;;;;;;3.40;1.73;;;;;;;17.76;36.71;94116.06;5095511;28;20066;-72
2023/04/16 11:22:41;;;;;;;6.93;1.85;;;;;;;17.48;36.92;94095.00;5079702;28;20490;-73
2023/04/16 11:25:07;;;;;;;5.70;2.30;;;;;;;17.46;38.47;94101.44;5105295;27;20039;-71
2023/04/16 11:27:32;;;;;;;11.63;5.32;;;;;;;17.54;37.18;94103.94;5103694;28;20143;-74
2023/04/16 11:29:59;;;;;;;11.25;6.28;;;;;;;17.61;37.08;94099.56;5110097;28;20028;-73
2023/04/16 11:32:25;;;;;;;6.25;3.17;;;;;;;17.73;36.96;94087.56;5091497;28;20055;-73